Uvalde Research's Hourly Summary for Friday, July 6, 2018
Hour Temp
(f)
RH
(%)
Solar Rad.
(MJ/m2)
Rainfall
(in)
Wind
(mph)
7/6/2018 12:00 AM 77 80 0 0 0
7/6/2018 1:00 AM 76 84 0 0 0.04
7/6/2018 2:00 AM 76 87 0 0 0.18
7/6/2018 3:00 AM 74 90 0 0 0.02
7/6/2018 4:00 AM 74 93 0 0 0.2
7/6/2018 5:00 AM 73 94 0 0 0.01
7/6/2018 6:00 AM 73 94 0 0 0.08
7/6/2018 7:00 AM 73 94 0.13 0 0.01
7/6/2018 8:00 AM 75 89 0.23 0 1.16
7/6/2018 9:00 AM 77 84 0.21 0 0.28
7/6/2018 10:00 AM 75 93 0.31 0.03 2.77
7/6/2018 11:00 AM 75 94 0.73 0 1.01
7/6/2018 12:00 PM 77 88 0.75 0.03 0.84
7/6/2018 1:00 PM 78 86 2.51 0 2.32
7/6/2018 2:00 PM 83 67 2.74 0 2.39
7/6/2018 3:00 PM 88 57 2.52 0 2.37
7/6/2018 4:00 PM 90 52 1.4 0 1.93
7/6/2018 5:00 PM 89 49 0.83 0 1.93
7/6/2018 6:00 PM 90 49 0.71 0 2.09
7/6/2018 7:00 PM 85 63 0.12 0 2.32
7/6/2018 8:00 PM 82 72 0.02 0 1.66
7/6/2018 9:00 PM 79 79 0 0 0.45
7/6/2018 10:00 PM 77 83 0 0 0.11
7/6/2018 11:00 PM 75 87 0 0 0.3
Data Summary 78 79 13.21 0.06 1.02